Time;durP1;ratioP1;P1;durP2;ratioP2;P2;SDS_P1;SDS_P2;PMS_P1;PMS_P2;Temp;Humidity;BMP_temperature;BMP_pressure;BME280_temperature;BME280_humidity;BME280_pressure;Samples;Min_cycle;Max_cycle;Signal;HPM_P1;HPM_P2
2022/06/14 00:02:27;;;;;;;;;;;16.50;92.50;;;;;;4374515;32;43799;-77
2022/06/14 00:04:54;;;;;;;;;;;16.60;92.50;;;;;;4361433;32;44343;-77
2022/06/14 00:07:21;;;;;;;;;;;16.50;92.40;;;;;;4374757;32;43521;-77
2022/06/14 00:09:53;;;;;;;;;;;16.50;92.30;;;;;;4374390;32;44964;-77
2022/06/14 00:12:25;;;;;;;;;;;16.40;92.30;;;;;;4362705;32;44735;-77
2022/06/14 00:14:56;;;;;;;;;;;16.30;92.10;;;;;;4364631;32;45893;-77
2022/06/14 00:17:26;;;;;;;;;;;16.20;92.40;;;;;;4364579;32;44087;-77
2022/06/14 00:19:53;;;;;;;;;;;16.10;92.50;;;;;;4377514;32;42567;-77
2022/06/14 00:22:23;;;;;;;;;;;16.10;92.80;;;;;;4377422;32;42529;-77
2022/06/14 00:24:56;;;;;;;;;;;16.10;92.80;;;;;;4364472;32;46221;-77
2022/06/14 00:27:25;;;;;;;;;;;16.10;92.60;;;;;;4377449;32;42834;-77
2022/06/14 00:29:52;;;;;;;;;;;16.00;92.80;;;;;;4364045;32;44260;-77
2022/06/14 00:32:22;;;;;;;;;;;16.00;92.80;;;;;;4364074;32;45135;-77
2022/06/14 00:34:52;;;;;;;;;;;15.90;92.60;;;;;;4364027;32;42884;-77
2022/06/14 00:37:24;;;;;;;;;;;15.90;93.00;;;;;;4364083;32;44254;-77
2022/06/14 00:39:51;;;;;;;;;;;15.80;92.80;;;;;;4377904;32;43207;-77
2022/06/14 00:42:24;;;;;;;;;;;15.90;93.20;;;;;;4364108;32;44803;-77
2022/06/14 00:45:00;;;;;;;;;;;15.90;93.00;;;;;;4364325;32;45739;-77
2022/06/14 00:47:27;;;;;;;;;;;15.90;93.00;;;;;;4364292;32;45547;-77
2022/06/14 00:49:56;;;;;;;;;;;15.90;92.90;;;;;;4363966;32;43972;-77
2022/06/14 00:52:28;;;;;;;;;;;16.00;93.10;;;;;;4377052;32;43184;-77
2022/06/14 00:55:04;;;;;;;;;;;16.00;93.00;;;;;;4363970;32;44350;-77
2022/06/14 00:57:35;;;;;;;;;;;16.00;93.10;;;;;;4364038;32;44842;-77
2022/06/14 01:00:08;;;;;;;;;;;16.00;93.00;;;;;;4363863;32;43665;-77
2022/06/14 01:02:38;;;;;;;;;;;16.00;92.90;;;;;;4377480;32;20441;-77
2022/06/14 01:05:10;;;;;;;;;;;15.90;92.70;;;;;;4377338;32;43869;-77
2022/06/14 01:07:44;;;;;;;;;;;15.90;92.50;;;;;;4363749;32;45135;-77
2022/06/14 01:10:19;;;;;;;;;;;15.70;92.70;;;;;;4363837;32;45034;-77
2022/06/14 01:12:49;;;;;;;;;;;15.70;93.00;;;;;;4363383;32;42855;-77
2022/06/14 01:15:22;;;;;;;;;;;15.60;93.00;;;;;;4363852;32;43478;-77
2022/06/14 01:18:05;;;;;;;;;;;15.50;93.20;;;;;;4377184;32;45457;-77
2022/06/14 01:20:37;;;;;;;;;;;15.40;93.30;;;;;;4363636;32;44215;-77
2022/06/14 01:23:09;;;;;;;;;;;15.40;93.20;;;;;;4376632;32;45359;-77
2022/06/14 01:25:38;;;;;;;;;;;15.40;93.30;;;;;;4363460;32;44897;-77
2022/06/14 01:28:09;;;;;;;;;;;15.40;93.20;;;;;;4376590;32;42093;-77
2022/06/14 01:30:43;;;;;;;;;;;15.40;93.30;;;;;;4363418;32;46220;-78
2022/06/14 01:33:11;;;;;;;;;;;15.50;93.30;;;;;;4376833;32;42702;-77
2022/06/14 01:35:42;;;;;;;;;;;15.50;93.40;;;;;;4362979;32;42924;-77
2022/06/14 01:38:11;;;;;;;;;;;15.50;93.30;;;;;;4363403;32;45706;-77
2022/06/14 01:40:51;;;;;;;;;;;15.50;93.20;;;;;;4376347;32;43495;-77
2022/06/14 01:43:37;;;;;;;;;;;15.60;93.10;;;;;;4362926;32;43329;-77
2022/06/14 01:46:23;;;;;;;;;;;15.50;92.70;;;;;;4376327;32;42942;-77
2022/06/14 01:48:57;;;;;;;;;;;15.50;93.20;;;;;;4376726;32;45976;-77
2022/06/14 01:51:51;;;;;;;;;;;15.50;92.90;;;;;;4363483;32;43858;-77
2022/06/14 01:54:18;;;;;;;;;;;15.50;92.80;;;;;;4363609;32;43169;-77
2022/06/14 01:57:07;;;;;;;;;;;15.40;92.70;;;;;;4362955;32;41798;-77
2022/06/14 01:59:44;;;;;;;;;;;15.40;93.00;;;;;;4376133;32;43156;-77
2022/06/14 02:02:30;;;;;;;;;;;15.40;93.10;;;;;;4375835;32;43254;-77
2022/06/14 02:04:57;;;;;;;;;;;15.40;92.80;;;;;;4363250;32;21669;-77
2022/06/14 02:07:43;;;;;;;;;;;15.40;93.00;;;;;;4362585;32;43851;-77
2022/06/14 02:10:24;;;;;;;;;;;15.40;93.10;;;;;;4362486;32;44205;-78
2022/06/14 02:13:10;;;;;;;;;;;15.50;93.10;;;;;;4376223;32;42986;-77
2022/06/14 02:15:50;;;;;;;;;;;15.50;92.90;;;;;;4362975;32;45899;-77
2022/06/14 02:18:20;;;;;;;;;;;15.50;92.90;;;;;;4376337;32;43870;-77
2022/06/14 02:20:53;;;;;;;;;;;15.50;93.10;;;;;;4362511;32;44191;-77
2022/06/14 02:23:26;;;;;;;;;;;15.50;93.20;;;;;;4375908;32;42607;-78
2022/06/14 02:26:04;;;;;;;;;;;15.50;93.10;;;;;;4362637;32;43783;-77
2022/06/14 02:28:34;;;;;;;;;;;15.50;93.10;;;;;;4376235;32;41943;-77
2022/06/14 02:31:04;;;;;;;;;;;15.50;92.80;;;;;;4362463;32;42943;-77
2022/06/14 02:34:03;;;;;;;;;;;15.50;93.00;;;;;;4362462;32;43521;-77
2022/06/14 02:36:35;;;;;;;;;;;15.50;92.70;;;;;;4364591;32;20068;-77
2022/06/14 02:39:18;;;;;;;;;;;15.50;93.00;;;;;;4375711;32;43478;-77
2022/06/14 02:42:01;;;;;;;;;;;15.40;93.20;;;;;;4375787;32;46308;-77
2022/06/14 02:44:33;;;;;;;;;;;15.40;92.90;;;;;;4362721;32;43596;-77
2022/06/14 02:47:04;;;;;;;;;;;15.40;92.80;;;;;;4362586;32;45397;-77
2022/06/14 02:49:38;;;;;;;;;;;15.40;93.00;;;;;;4362596;32;44234;-77
2022/06/14 02:52:10;;;;;;;;;;;15.40;93.00;;;;;;4362518;32;43793;-77
2022/06/14 02:54:41;;;;;;;;;;;15.40;93.00;;;;;;4362514;32;44297;-77
2022/06/14 02:57:15;;;;;;;;;;;15.40;92.80;;;;;;4375708;32;44979;-77
2022/06/14 02:59:52;;;;;;;;;;;15.40;93.10;;;;;;4362182;32;43796;-77
2022/06/14 03:02:27;;;;;;;;;;;15.40;92.70;;;;;;4375120;32;43462;-77
2022/06/14 03:05:01;;;;;;;;;;;15.30;92.80;;;;;;4375468;32;45105;-77
2022/06/14 03:07:40;;;;;;;;;;;15.20;92.90;;;;;;4376405;32;20000;-77
2022/06/14 03:10:08;;;;;;;;;;;15.20;93.00;;;;;;4362235;32;45766;-78
2022/06/14 03:12:45;;;;;;;;;;;15.10;92.90;;;;;;4375692;32;44670;-78
2022/06/14 03:15:16;;;;;;;;;;;14.90;93.10;;;;;;4375542;32;43754;-77
2022/06/14 03:17:53;;;;;;;;;;;14.80;93.30;;;;;;4375482;32;45688;-77
2022/06/14 03:20:20;;;;;;;;;;;14.80;93.40;;;;;;4375246;32;42480;-77
2022/06/14 03:22:47;;;;;;;;;;;14.80;93.60;;;;;;4361653;32;42747;-77
2022/06/14 03:25:34;;;;;;;;;;;14.80;93.50;;;;;;4361997;32;42635;-77
2022/06/14 03:28:04;;;;;;;;;;;14.80;93.60;;;;;;4375519;32;43836;-77
2022/06/14 03:30:40;;;;;;;;;;;14.80;93.70;;;;;;4374704;32;45686;-77
2022/06/14 03:33:11;;;;;;;;;;;14.80;93.60;;;;;;4361851;32;44826;-77
2022/06/14 03:35:47;;;;;;;;;;;14.80;93.40;;;;;;4361631;32;45518;-77
2022/06/14 03:38:21;;;;;;;;;;;14.70;93.40;;;;;;4362215;32;20001;-77
2022/06/14 03:40:51;;;;;;;;;;;14.80;93.40;;;;;;4361617;32;43062;-77
2022/06/14 03:43:19;;;;;;;;;;;14.70;93.40;;;;;;4361333;32;43447;-77
2022/06/14 03:45:51;;;;;;;;;;;14.60;93.60;;;;;;4361569;32;45784;-77
2022/06/14 03:48:19;;;;;;;;;;;14.60;93.70;;;;;;4360990;32;44178;-77
2022/06/14 03:50:55;;;;;;;;;;;14.50;93.70;;;;;;4361667;32;43490;-77
2022/06/14 03:53:55;;;;;;;;;;;14.40;93.90;;;;;;4361690;32;43602;-77
2022/06/14 03:56:57;;;;;;;;;;;14.50;94.00;;;;;;4329045;32;45774;-77
2022/06/14 03:59:45;;;;;;;;;;;14.50;94.10;;;;;;4301747;33;46084;-77
2022/06/14 04:02:19;;;;;;;;;;;14.50;94.10;;;;;;4357651;32;43864;-76
2022/06/14 04:04:52;;;;;;;;;;;14.50;94.10;;;;;;4361761;32;43482;-77
2022/06/14 04:07:19;;;;;;;;;;;14.50;94.20;;;;;;4361598;32;42334;-77
2022/06/14 04:09:56;;;;;;;;;;;14.60;94.30;;;;;;4362275;32;20331;-77
2022/06/14 04:12:38;;;;;;;;;;;14.60;94.30;;;;;;4361096;32;43182;-77
2022/06/14 04:15:33;;;;;;;;;;;14.60;94.50;;;;;;4361535;32;44780;-77
2022/06/14 04:21:02;;;;;;;;;;;14.60;94.50;;;;;;4375298;32;43254;-77
2022/06/14 04:23:36;;;;;;;;;;;14.70;94.80;;;;;;4361705;32;45988;-76
2022/06/14 04:26:22;;;;;;;;;;;14.70;94.60;;;;;;4374890;32;45007;-76
2022/06/14 04:28:56;;;;;;;;;;;14.70;94.70;;;;;;4361184;32;42568;-76
2022/06/14 04:31:41;;;;;;;;;;;14.70;94.80;;;;;;4361470;32;45713;-76
2022/06/14 04:34:18;;;;;;;;;;;14.80;94.80;;;;;;4361552;32;44218;-76
2022/06/14 04:36:54;;;;;;;;;;;14.80;94.80;;;;;;4361400;32;45195;-76
2022/06/14 04:39:33;;;;;;;;;;;14.80;94.90;;;;;;4361623;32;43854;-77
2022/06/14 04:42:20;;;;;;;;;;;14.90;94.90;;;;;;4374624;32;42109;-77
2022/06/14 04:44:51;;;;;;;;;;;14.90;94.90;;;;;;4361275;32;45420;-76
2022/06/14 04:47:31;;;;;;;;;;;14.90;94.90;;;;;;4361368;32;43262;-77
2022/06/14 04:50:18;;;;;;;;;;;14.90;95.00;;;;;;4374446;32;42657;-77
2022/06/14 04:52:53;;;;;;;;;;;14.90;95.00;;;;;;4374591;32;43336;-77
2022/06/14 04:55:26;;;;;;;;;;;14.90;95.10;;;;;;4374579;32;45863;-77
2022/06/14 04:57:59;;;;;;;;;;;15.00;95.10;;;;;;4361874;32;44236;-76
2022/06/14 05:00:30;;;;;;;;;;;15.00;95.10;;;;;;4363461;32;42775;-77
2022/06/14 05:03:05;;;;;;;;;;;15.00;95.30;;;;;;4363904;32;43363;-76
2022/06/14 05:05:47;;;;;;;;;;;15.00;95.20;;;;;;4376866;32;43421;-77
2022/06/14 05:08:22;;;;;;;;;;;15.10;95.40;;;;;;4363255;32;45862;-77
2022/06/14 05:10:56;;;;;;;;;;;15.10;95.60;;;;;;4363897;32;44214;-77
2022/06/14 05:13:42;;;;;;;;;;;15.10;95.60;;;;;;4377869;32;19993;-76
2022/06/14 05:16:18;;;;;;;;;;;15.10;95.70;;;;;;4377084;32;43231;-77
2022/06/14 05:19:01;;;;;;;;;;;15.10;95.50;;;;;;4363818;32;45823;-77
2022/06/14 05:21:41;;;;;;;;;;;15.10;95.40;;;;;;4376983;32;43942;-76
2022/06/14 05:24:11;;;;;;;;;;;15.10;95.60;;;;;;4377321;32;43335;-76
2022/06/14 05:26:56;;;;;;;;;;;15.10;95.50;;;;;;4377098;32;45389;-77
2022/06/14 05:29:30;;;;;;;;;;;15.10;95.50;;;;;;4363702;32;44946;-77
2022/06/14 05:32:24;;;;;;;;;;;15.10;95.60;;;;;;4363365;32;43655;-77
2022/06/14 05:35:13;;;;;;;;;;;15.10;95.60;;;;;;4377030;32;43715;-76
2022/06/14 05:37:55;;;;;;;;;;;15.10;95.80;;;;;;4376927;32;44944;-76
2022/06/14 05:40:34;;;;;;;;;;;15.10;95.90;;;;;;4376653;32;42855;-77
2022/06/14 05:43:13;;;;;;;;;;;15.10;95.50;;;;;;4376781;32;44833;-77
2022/06/14 05:45:45;;;;;;;;;;;15.10;95.60;;;;;;4376326;32;43138;-77
2022/06/14 05:48:16;;;;;;;;;;;15.10;95.80;;;;;;4363004;32;42914;-77
2022/06/14 05:50:52;;;;;;;;;;;15.10;95.80;;;;;;4363724;32;43924;-77
2022/06/14 05:53:32;;;;;;;;;;;15.10;95.80;;;;;;4377000;32;43843;-76
2022/06/14 05:56:19;;;;;;;;;;;15.10;96.10;;;;;;4376623;32;43970;-77
2022/06/14 05:58:58;;;;;;;;;;;15.10;96.10;;;;;;4362769;32;43983;-77
2022/06/14 06:01:40;;;;;;;;;;;15.10;96.50;;;;;;4362981;32;43814;-77
2022/06/14 06:04:33;;;;;;;;;;;15.20;96.70;;;;;;4376103;32;42994;-77
2022/06/14 06:07:10;;;;;;;;;;;15.20;96.70;;;;;;4363275;32;44370;-77
2022/06/14 06:09:46;;;;;;;;;;;15.20;96.70;;;;;;4362531;32;43632;-77
2022/06/14 06:12:21;;;;;;;;;;;15.20;97.10;;;;;;4376412;32;44096;-76
2022/06/14 06:15:05;;;;;;;;;;;15.20;97.70;;;;;;4363746;32;20004;-77
2022/06/14 06:18:11;;;;;;;;;;;15.30;97.30;;;;;;4376161;32;43200;-77
2022/06/14 06:20:47;;;;;;;;;;;15.20;97.40;;;;;;4302343;33;43882;-77
2022/06/14 06:23:21;;;;;;;;;;;15.20;97.20;;;;;;4314620;33;44217;-77
2022/06/14 06:25:50;;;;;;;;;;;15.30;97.20;;;;;;4350379;32;43446;-77
2022/06/14 06:28:37;;;;;;;;;;;15.30;97.40;;;;;;4362474;32;44651;-77
2022/06/14 06:31:11;;;;;;;;;;;15.30;97.50;;;;;;4362751;32;44176;-78
2022/06/14 06:33:47;;;;;;;;;;;15.30;97.40;;;;;;4362212;32;43490;-78
2022/06/14 06:36:17;;;;;;;;;;;15.30;97.50;;;;;;4362938;32;43201;-77
2022/06/14 06:39:02;;;;;;;;;;;15.30;97.40;;;;;;4362287;32;42605;-78
2022/06/14 06:41:50;;;;;;;;;;;15.30;97.20;;;;;;4376126;32;44314;-78
2022/06/14 06:44:26;;;;;;;;;;;15.30;97.40;;;;;;4362183;32;42723;-78
2022/06/14 06:47:02;;;;;;;;;;;15.30;97.50;;;;;;4376272;32;20440;-77
2022/06/14 06:49:36;;;;;;;;;;;15.30;97.50;;;;;;4375740;32;45711;-77
2022/06/14 06:52:04;;;;;;;;;;;15.30;97.80;;;;;;4362486;32;45992;-78
2022/06/14 06:54:49;;;;;;;;;;;15.30;97.60;;;;;;4362545;32;43439;-77
2022/06/14 06:57:18;;;;;;;;;;;15.40;97.50;;;;;;4362266;32;44495;-77
2022/06/14 06:59:57;;;;;;;;;;;15.40;97.40;;;;;;4375827;32;45797;-78
2022/06/14 07:02:27;;;;;;;;;;;15.40;96.70;;;;;;4375434;32;44179;-77
2022/06/14 07:05:05;;;;;;;;;;;15.40;96.50;;;;;;4362093;32;42328;-78
2022/06/14 07:07:53;;;;;;;;;;;15.40;96.50;;;;;;4362325;32;44199;-77
2022/06/14 07:10:20;;;;;;;;;;;15.40;96.60;;;;;;4362132;32;43565;-78
2022/06/14 07:12:52;;;;;;;;;;;15.40;96.70;;;;;;4362050;32;44606;-78
2022/06/14 07:15:26;;;;;;;;;;;15.40;96.50;;;;;;4375074;32;43355;-77
2022/06/14 07:18:13;;;;;;;;;;;15.40;96.40;;;;;;4375711;32;30443;-78
2022/06/14 07:20:44;;;;;;;;;;;15.40;96.30;;;;;;4361567;32;45834;-77
2022/06/14 07:23:17;;;;;;;;;;;15.50;96.20;;;;;;4361629;32;43060;-78
2022/06/14 07:25:52;;;;;;;;;;;15.50;96.20;;;;;;4361764;32;43708;-77
2022/06/14 07:28:31;;;;;;;;;;;15.50;95.80;;;;;;4362004;32;44298;-77
2022/06/14 07:31:10;;;;;;;;;;;15.50;96.60;;;;;;4375068;32;44049;-77
2022/06/14 07:33:37;;;;;;;;;;;15.50;96.20;;;;;;4375169;32;44133;-78
2022/06/14 07:36:13;;;;;;;;;;;15.60;96.20;;;;;;4374744;32;43752;-77
2022/06/14 07:38:40;;;;;;;;;;;15.60;96.20;;;;;;4361950;32;45442;-78
2022/06/14 07:41:18;;;;;;;;;;;15.60;96.10;;;;;;4361862;32;44659;-77
2022/06/14 07:44:04;;;;;;;;;;;15.60;96.20;;;;;;4375139;32;44853;-77
2022/06/14 07:46:36;;;;;;;;;;;15.60;96.00;;;;;;4361858;32;43212;-77
2022/06/14 07:49:27;;;;;;;;;;;15.60;96.20;;;;;;4362648;32;20056;-77
2022/06/14 07:52:15;;;;;;;;;;;15.70;96.20;;;;;;4334457;32;44358;-77
2022/06/14 07:54:45;;;;;;;;;;;15.70;96.50;;;;;;4331728;32;43482;-77
2022/06/14 07:57:15;;;;;;;;;;;15.70;96.60;;;;;;4361303;32;42913;-78
2022/06/14 07:59:49;;;;;;;;;;;15.80;96.30;;;;;;4374950;32;42894;-77
2022/06/14 08:02:26;;;;;;;;;;;15.80;96.30;;;;;;4361051;32;44009;-77
2022/06/14 08:04:55;;;;;;;;;;;15.80;96.10;;;;;;4374634;32;43301;-77
2022/06/14 08:07:26;;;;;;;;;;;15.80;96.30;;;;;;4361818;32;43766;-77
2022/06/14 08:10:06;;;;;;;;;;;15.80;95.80;;;;;;4361043;32;43844;-77
2022/06/14 08:12:49;;;;;;;;;;;15.80;95.50;;;;;;4361500;32;43436;-77
2022/06/14 08:15:19;;;;;;;;;;;15.80;95.70;;;;;;4374917;32;42167;-77
2022/06/14 08:18:18;;;;;;;;;;;15.90;95.80;;;;;;4374301;32;44363;-77
2022/06/14 08:21:09;;;;;;;;;;;15.80;95.80;;;;;;4352643;32;45814;-77
2022/06/14 08:23:52;;;;;;;;;;;15.90;96.00;;;;;;4333707;32;42842;-77
2022/06/14 08:26:19;;;;;;;;;;;15.90;96.00;;;;;;4374788;32;43005;-77
2022/06/14 08:28:49;;;;;;;;;;;15.90;95.40;;;;;;4361231;32;45432;-77
2022/06/14 08:31:21;;;;;;;;;;;15.90;95.20;;;;;;4374890;32;42466;-77
2022/06/14 08:33:56;;;;;;;;;;;15.90;95.60;;;;;;4362847;32;42907;-77
2022/06/14 08:36:26;;;;;;;;;;;15.90;95.60;;;;;;4377659;32;44047;-77
2022/06/14 08:38:58;;;;;;;;;;;15.90;95.40;;;;;;4377610;32;43450;-77
2022/06/14 08:41:37;;;;;;;;;;;15.90;95.30;;;;;;4364449;32;43241;-77
2022/06/14 08:44:17;;;;;;;;;;;16.00;95.50;;;;;;4364265;32;45448;-76
2022/06/14 08:47:16;;;;;;;;;;;16.00;95.50;;;;;;4377610;32;44401;-77
2022/06/14 08:49:47;;;;;;;;;;;16.00;95.30;;;;;;4332477;32;20055;-76
2022/06/14 08:52:23;;;;;;;;;;;16.10;95.10;;;;;;4377222;32;44583;-76
2022/06/14 08:55:06;;;;;;;;;;;16.10;94.90;;;;;;4377463;32;44158;-77
2022/06/14 08:57:58;;;;;;;;;;;16.10;94.70;;;;;;4364864;32;43884;-77
2022/06/14 09:00:44;;;;;;;;;;;16.10;94.20;;;;;;4364085;32;44123;-77
2022/06/14 09:03:43;;;;;;;;;;;16.10;94.00;;;;;;4363358;32;45836;-76
2022/06/14 09:06:24;;;;;;;;;;;16.10;94.10;;;;;;4343947;32;43311;-77
2022/06/14 09:09:00;;;;;;;;;;;16.10;94.30;;;;;;4377525;32;44755;-76
2022/06/14 09:11:34;;;;;;;;;;;16.10;94.30;;;;;;4363996;32;43589;-76
2022/06/14 09:14:10;;;;;;;;;;;16.10;93.80;;;;;;4363954;32;44440;-76
2022/06/14 09:16:51;;;;;;;;;;;16.10;94.50;;;;;;4377202;32;44887;-77
2022/06/14 09:19:39;;;;;;;;;;;16.20;94.60;;;;;;4363557;32;42631;-76
2022/06/14 09:22:07;;;;;;;;;;;16.20;95.00;;;;;;4363861;32;45731;-77
2022/06/14 09:24:51;;;;;;;;;;;16.20;95.00;;;;;;4363213;32;43386;-76
2022/06/14 09:27:30;;;;;;;;;;;16.20;95.00;;;;;;4363838;32;43910;-77
2022/06/14 09:29:57;;;;;;;;;;;16.20;95.10;;;;;;4377145;32;44789;-76
2022/06/14 09:33:09;;;;;;;;;;;16.20;95.30;;;;;;4363390;32;43211;-77
2022/06/14 09:35:30;;;;;;;;;;;16.20;95.10;;;;;;4376792;32;45350;-76
2022/06/14 09:37:57;;;;;;;;;;;16.20;95.20;;;;;;4377049;32;44116;-76
2022/06/14 09:40:47;;;;;;;;;;;16.20;94.20;;;;;;4363121;32;42819;-77
2022/06/14 09:43:33;;;;;;;;;;;16.20;94.00;;;;;;4363426;32;44141;-77
2022/06/14 09:46:09;;;;;;;;;;;16.30;94.30;;;;;;4376109;32;44005;-76
2022/06/14 09:49:05;;;;;;;;;;;16.30;94.60;;;;;;4362955;32;45021;-76
2022/06/14 09:52:11;;;;;;;;;;;16.30;94.10;;;;;;4364221;32;20027;-76
2022/06/14 09:54:44;;;;;;;;;;;16.30;94.50;;;;;;4304016;33;43304;-76
2022/06/14 09:57:19;;;;;;;;;;;16.30;93.70;;;;;;4302883;33;45802;-76
2022/06/14 10:00:04;;;;;;;;;;;16.30;93.70;;;;;;4338669;32;43826;-76
2022/06/14 10:02:43;;;;;;;;;;;16.30;93.80;;;;;;4376296;32;43891;-76
2022/06/14 10:05:14;;;;;;;;;;;16.40;94.20;;;;;;4376209;32;43885;-77
2022/06/14 10:07:41;;;;;;;;;;;16.40;94.00;;;;;;4376074;32;44573;-76
2022/06/14 10:10:14;;;;;;;;;;;16.40;93.50;;;;;;4375941;32;44201;-76
2022/06/14 10:13:11;;;;;;;;;;;16.40;94.20;;;;;;4362915;32;43021;-76
2022/06/14 10:15:38;;;;;;;;;;;16.40;94.20;;;;;;4376564;32;43439;-77
2022/06/14 10:18:14;;;;;;;;;;;16.50;94.60;;;;;;4363060;32;44294;-76
2022/06/14 10:20:41;;;;;;;;;;;16.50;92.90;;;;;;4376444;32;45720;-77
2022/06/14 10:23:11;;;;;;;;;;;16.50;93.50;;;;;;4362843;32;42912;-76
2022/06/14 10:28:11;;;;;;;;;;;16.50;93.30;;;;;;4376188;32;45175;-78
2022/06/14 10:28:32;;;;;;;;;;;16.60;93.70;;;;;;4376310;32;44564;-76
2022/06/14 10:31:06;;;;;;;;;;;16.60;93.90;;;;;;4375927;32;42245;-77
2022/06/14 10:33:36;;;;;;;;;;;16.60;94.00;;;;;;4375817;32;43187;-77
2022/06/14 10:36:09;;;;;;;;;;;16.60;93.50;;;;;;4362554;32;45383;-77
2022/06/14 10:38:51;;;;;;;;;;;16.60;93.70;;;;;;4375610;32;44400;-77
2022/06/14 10:41:34;;;;;;;;;;;16.60;94.10;;;;;;4362294;32;43441;-77
2022/06/14 10:44:20;;;;;;;;;;;16.60;93.50;;;;;;4362274;32;44215;-77
2022/06/14 10:46:50;;;;;;;;;;;16.70;93.40;;;;;;4362085;32;45992;-77
2022/06/14 10:49:29;;;;;;;;;;;16.70;93.80;;;;;;4361682;32;43883;-77
2022/06/14 10:52:02;;;;;;;;;;;16.70;93.60;;;;;;4375538;32;45128;-77
2022/06/14 10:54:29;;;;;;;;;;;16.70;93.30;;;;;;4361442;32;45537;-77
2022/06/14 10:57:18;;;;;;;;;;;16.70;93.30;;;;;;4361491;32;43821;-77
2022/06/14 10:59:49;;;;;;;;;;;16.80;93.80;;;;;;4361997;32;44174;-77
2022/06/14 11:02:35;;;;;;;;;;;16.90;93.00;;;;;;4375013;32;43489;-76
2022/06/14 11:05:09;;;;;;;;;;;16.90;93.40;;;;;;4362197;32;43991;-77
2022/06/14 11:07:59;;;;;;;;;;;16.90;92.90;;;;;;4362160;32;44009;-77
2022/06/14 11:10:30;;;;;;;;;;;16.90;93.50;;;;;;4334784;32;43972;-76
2022/06/14 11:13:19;;;;;;;;;;;16.90;94.10;;;;;;4361648;32;43466;-76
2022/06/14 11:15:52;;;;;;;;;;;16.90;93.90;;;;;;4362142;32;45565;-77
2022/06/14 11:18:20;;;;;;;;;;;17.00;93.30;;;;;;4375648;32;43979;-77
2022/06/14 11:21:03;;;;;;;;;;;17.00;93.30;;;;;;4362020;32;45780;-78
2022/06/14 11:23:39;;;;;;;;;;;17.10;93.40;;;;;;4375956;32;20035;-78
2022/06/14 11:26:06;;;;;;;;;;;17.10;93.30;;;;;;4362090;32;43568;-78
2022/06/14 11:28:36;;;;;;;;;;;17.20;92.60;;;;;;4375231;32;46315;-78
2022/06/14 11:31:06;;;;;;;;;;;17.20;92.00;;;;;;4375403;32;44797;-77
2022/06/14 11:33:39;;;;;;;;;;;17.20;92.30;;;;;;4375311;32;44386;-78
2022/06/14 11:36:19;;;;;;;;;;;17.20;92.40;;;;;;4362012;32;43742;-78
2022/06/14 11:39:09;;;;;;;;;;;17.30;92.20;;;;;;4361922;32;43940;-78
2022/06/14 11:41:44;;;;;;;;;;;17.30;92.90;;;;;;4374944;32;44282;-77
2022/06/14 11:44:11;;;;;;;;;;;17.20;93.00;;;;;;4361367;32;45045;-79
2022/06/14 11:47:11;;;;;;;;;;;17.30;91.50;;;;;;4374671;32;43075;-79
2022/06/14 11:49:47;;;;;;;;;;;17.30;91.70;;;;;;4342208;32;43808;-77
2022/06/14 11:52:23;;;;;;;;;;;17.30;91.80;;;;;;4361874;32;45128;-79
2022/06/14 11:54:53;;;;;;;;;;;17.40;91.60;;;;;;4374951;32;42636;-79
2022/06/14 11:57:25;;;;;;;;;;;17.40;92.40;;;;;;4361810;32;44117;-79
2022/06/14 11:59:53;;;;;;;;;;;17.40;92.50;;;;;;4375104;32;43049;-79
2022/06/14 12:02:20;;;;;;;;;;;17.40;92.10;;;;;;4361036;32;43451;-79
2022/06/14 12:05:08;;;;;;;;;;;17.40;91.90;;;;;;4360987;32;45996;-78
2022/06/14 12:07:37;;;;;;;;;;;17.40;92.00;;;;;;4351265;32;43481;-79
2022/06/14 12:10:23;;;;;;;;;;;17.40;92.10;;;;;;4361241;32;43188;-79
2022/06/14 12:13:07;;;;;;;;;;;17.40;92.50;;;;;;4361373;32;44343;-78
2022/06/14 12:15:34;;;;;;;;;;;17.40;92.70;;;;;;4361400;32;43787;-78
2022/06/14 12:18:03;;;;;;;;;;;17.50;92.40;;;;;;4361062;32;44219;-78
2022/06/14 12:20:34;;;;;;;;;;;17.50;91.70;;;;;;4374650;32;43254;-77
2022/06/14 12:23:01;;;;;;;;;;;17.50;92.20;;;;;;4374809;32;46037;-78
2022/06/14 12:28:30;;;;;;;;;;;17.50;92.10;;;;;;4374992;32;43521;-78
2022/06/14 12:31:03;;;;;;;;;;;17.50;92.50;;;;;;4375004;32;44307;-78
2022/06/14 12:33:33;;;;;;;;;;;17.50;92.90;;;;;;4374762;32;42938;-78
2022/06/14 12:36:00;;;;;;;;;;;17.60;92.00;;;;;;4360968;32;44183;-78
2022/06/14 12:38:31;;;;;;;;;;;17.60;92.80;;;;;;4374504;32;44039;-77
2022/06/14 12:40:58;;;;;;;;;;;17.60;92.80;;;;;;4361386;32;44610;-78
2022/06/14 12:43:50;;;;;;;;;;;17.60;92.10;;;;;;4361202;32;43027;-77
2022/06/14 12:46:20;;;;;;;;;;;17.70;91.80;;;;;;4372971;32;45252;-77
2022/06/14 12:49:11;;;;;;;;;;;17.70;92.00;;;;;;4374578;32;43874;-77
2022/06/14 12:51:52;;;;;;;;;;;17.80;92.50;;;;;;4374877;32;43889;-79
2022/06/14 12:54:28;;;;;;;;;;;17.80;92.80;;;;;;4374786;32;44529;-77
2022/06/14 12:56:55;;;;;;;;;;;17.80;92.60;;;;;;4361897;32;20404;-78
2022/06/14 12:59:23;;;;;;;;;;;17.80;92.80;;;;;;4360993;32;42839;-77
2022/06/14 13:02:04;;;;;;;;;;;17.80;93.10;;;;;;4360748;32;44195;-77
2022/06/14 13:04:40;;;;;;;;;;;17.80;92.80;;;;;;4374539;32;44028;-77
2022/06/14 13:07:21;;;;;;;;;;;17.90;92.70;;;;;;4361193;32;45436;-77
2022/06/14 13:09:57;;;;;;;;;;;17.90;92.40;;;;;;4361395;32;45817;-77
2022/06/14 13:12:43;;;;;;;;;;;18.00;93.10;;;;;;4360669;32;43214;-78
2022/06/14 13:15:25;;;;;;;;;;;18.00;93.30;;;;;;4361257;32;44281;-78
2022/06/14 13:18:06;;;;;;;;;;;18.00;92.80;;;;;;4374706;32;44206;-77
2022/06/14 13:20:52;;;;;;;;;;;18.00;93.10;;;;;;4375536;32;44719;-77
2022/06/14 13:23:37;;;;;;;;;;;18.10;92.70;;;;;;4376681;32;43558;-78
2022/06/14 13:26:23;;;;;;;;;;;18.10;92.00;;;;;;4363576;32;43189;-78
2022/06/14 13:28:56;;;;;;;;;;;18.20;91.30;;;;;;4377599;32;20001;-78
2022/06/14 13:31:23;;;;;;;;;;;18.20;92.20;;;;;;4376984;32;44148;-77
2022/06/14 13:33:59;;;;;;;;;;;18.20;92.50;;;;;;4376924;32;43192;-77
2022/06/14 13:36:38;;;;;;;;;;;18.20;92.60;;;;;;4376701;32;42643;-77
2022/06/14 13:39:15;;;;;;;;;;;18.20;92.30;;;;;;4363876;32;43886;-78
2022/06/14 13:42:00;;;;;;;;;;;18.20;92.70;;;;;;4363420;32;43808;-78
2022/06/14 13:44:41;;;;;;;;;;;18.20;92.60;;;;;;4363023;32;41746;-77
2022/06/14 13:47:12;;;;;;;;;;;18.20;92.50;;;;;;4363216;32;42669;-77
2022/06/14 13:49:42;;;;;;;;;;;18.20;91.80;;;;;;4363194;32;43478;-78
2022/06/14 13:52:09;;;;;;;;;;;18.30;91.70;;;;;;4362820;32;46083;-78
2022/06/14 13:54:43;;;;;;;;;;;18.30;91.10;;;;;;4363361;32;44318;-78
2022/06/14 13:57:14;;;;;;;;;;;18.40;91.10;;;;;;4362812;32;42961;-77
2022/06/14 13:59:43;;;;;;;;;;;18.50;91.00;;;;;;4376535;32;45235;-77
2022/06/14 14:02:24;;;;;;;;;;;18.50;91.10;;;;;;4362799;32;42589;-76
2022/06/14 14:05:00;;;;;;;;;;;18.60;91.00;;;;;;4376450;32;43313;-77
2022/06/14 14:07:30;;;;;;;;;;;18.60;91.80;;;;;;4362678;32;42106;-76
2022/06/14 14:10:16;;;;;;;;;;;18.60;91.10;;;;;;4362790;32;44041;-77
2022/06/14 14:12:56;;;;;;;;;;;18.60;91.00;;;;;;4364010;32;43464;-77
2022/06/14 14:15:26;;;;;;;;;;;18.60;91.60;;;;;;4376555;32;43511;-78
2022/06/14 14:17:56;;;;;;;;;;;18.60;91.50;;;;;;4376522;32;43916;-78
2022/06/14 14:20:35;;;;;;;;;;;18.60;91.50;;;;;;4362512;32;42613;-77
2022/06/14 14:23:18;;;;;;;;;;;18.60;91.60;;;;;;4376464;32;43482;-77
2022/06/14 14:25:47;;;;;;;;;;;18.70;91.40;;;;;;4376235;32;43808;-77
2022/06/14 14:28:47;;;;;;;;;;;18.70;91.90;;;;;;4362767;32;44216;-76
2022/06/14 14:31:20;;;;;;;;;;;18.70;91.40;;;;;;4337653;32;42761;-77
2022/06/14 14:33:47;;;;;;;;;;;18.80;91.10;;;;;;4376175;32;42514;-77
2022/06/14 14:36:20;;;;;;;;;;;18.80;91.40;;;;;;4362627;32;44159;-77
2022/06/14 14:38:59;;;;;;;;;;;18.80;91.20;;;;;;4375629;32;43351;-76
2022/06/14 14:41:34;;;;;;;;;;;18.90;91.20;;;;;;4375998;32;43921;-76
2022/06/14 14:44:11;;;;;;;;;;;18.90;91.50;;;;;;4375686;32;44157;-77
2022/06/14 14:46:42;;;;;;;;;;;18.90;91.50;;;;;;4362753;32;44003;-77
2022/06/14 14:49:18;;;;;;;;;;;18.90;91.50;;;;;;4362271;32;42627;-77
2022/06/14 14:51:45;;;;;;;;;;;18.90;91.70;;;;;;4376155;32;44551;-77
2022/06/14 14:54:21;;;;;;;;;;;18.90;91.00;;;;;;4362220;32;43017;-77
2022/06/14 14:56:55;;;;;;;;;;;18.90;91.00;;;;;;4375677;32;42165;-77
2022/06/14 14:59:25;;;;;;;;;;;19.00;91.40;;;;;;4362284;32;43796;-76
2022/06/14 15:07:40;;;;;;;;;;;19.10;91.10;;;;;;4375623;32;43461;-77
2022/06/14 15:10:10;;;;;;;;;;;19.10;91.00;;;;;;4375306;32;43298;-77
2022/06/14 15:12:48;;;;;;;;;;;19.20;90.20;;;;;;4375090;32;44251;-77
2022/06/14 15:15:21;;;;;;;;;;;19.20;90.50;;;;;;4362255;32;43949;-77
2022/06/14 15:20:36;;;;;;;;;;;19.30;90.60;;;;;;4375520;32;44639;-77
2022/06/14 15:23:04;;;;;;;;;;;19.30;90.40;;;;;;4374983;32;43922;-77
2022/06/14 15:25:31;;;;;;;;;;;19.30;90.20;;;;;;4375052;32;43920;-76